Main page
METAR-TAF:

METAR-TAF

Airports :

Hale County Airport

Plainview, Texas, United States

latitude: 34-10-05N, longitude: 101-43-02W, elevation: 3372 ft

Current weather observation

The report was made 13 minutes ago, at 06:15 UTC
Wind 9 mph from the North/Northwest
Temperature 23°F
Humidity 73%
Pressure 30.16 in. Hg
Visibility: 10 miles
Clear sky

METAR: KPVW 230615Z AUTO 34008KT 10SM CLR M05/M09 A3016 RMK AO2 T10471092

Time: 00:28 (06:28 UTC)

Forecast

The report was made 1 hour and 8 minutes ago, at 05:20 UTC
Forecast valid from 23 at 06 UTC to 24 at 06 UTC
Wind 13 mph from the North/Northwest
Visibility: 6 miles
Clear sky

TAF: KPVW 230520Z 2306/2406 33011KT P6SM SKC

Weather observations and forecasts of more than 4000 airports (METAR and TAF reports).

The available stations are represented by yellow and red dots on the map.

Hover mouse over dot to see the name of the station.

Then click to see weather observations and forecasts.

To change the map : click on the green buttons with a black cross to zoom in, on the green button with a dash to zoom out, or on the green arrows for adjacent maps.


METAR-TAF: